Time;durP1;ratioP1;P1;durP2;ratioP2;P2;SDS_P1;SDS_P2;PMS_P1;PMS_P2;Temp;Humidity;BMP_temperature;BMP_pressure;BME280_temperature;BME280_humidity;BME280_pressure;Samples;Min_cycle;Max_cycle;Signal;HPM_P1;HPM_P2
2022/07/26 00:01:06;;;;;;;0.40;0.20;;;23.50;92.80;;;;;;5026585;28;20423;-69
2022/07/26 00:03:32;;;;;;;0.40;0.20;;;23.50;93.30;;;;;;5017347;28;20483;-69
2022/07/26 00:05:58;;;;;;;0.40;0.30;;;23.60;93.10;;;;;;5011436;28;20424;-69
2022/07/26 00:08:25;;;;;;;0.50;0.50;;;23.70;93.10;;;;;;5013369;28;20434;-69
2022/07/26 00:10:52;;;;;;;0.40;0.20;;;23.60;93.90;;;;;;5029981;28;20396;-68
2022/07/26 00:13:19;;;;;;;0.40;0.20;;;23.40;95.10;;;;;;5005194;28;20407;-69
2022/07/26 00:15:46;;;;;;;0.40;0.20;;;23.40;94.80;;;;;;5024242;28;20460;-68
2022/07/26 00:18:13;;;;;;;0.40;0.30;;;23.40;95.80;;;;;;5029068;28;20414;-69
2022/07/26 00:20:39;;;;;;;0.40;0.20;;;23.40;95.90;;;;;;5019073;28;20393;-69
2022/07/26 00:23:07;;;;;;;0.40;0.28;;;23.30;96.70;;;;;;5009837;28;20385;-68
2022/07/26 00:25:33;;;;;;;0.40;0.30;;;23.30;97.80;;;;;;5018302;28;20457;-68
2022/07/26 00:27:59;;;;;;;0.40;0.20;;;23.30;98.00;;;;;;5023248;28;20407;-69
2022/07/26 00:30:25;;;;;;;0.40;0.30;;;23.30;98.70;;;;;;5011053;28;20409;-68
2022/07/26 00:32:55;;;;;;;0.40;0.30;;;23.30;99.40;;;;;;5028132;28;20958;-69
2022/07/26 00:41:17;;;;;;;0.40;0.30;;;23.40;99.90;;;;;;5064945;22;23445;-69
2022/07/26 00:43:54;;;;;;;0.40;0.30;;;23.30;99.90;;;;;;5007058;28;20440;-68
2022/07/26 00:46:19;;;;;;;0.40;0.20;;;23.20;99.90;;;;;;4997039;28;20471;-70
2022/07/26 00:48:45;;;;;;;0.40;0.20;;;23.30;99.90;;;;;;5013064;28;20429;-70
2022/07/26 00:51:10;;;;;;;0.40;0.30;;;23.20;99.90;;;;;;4996630;28;20837;-68
2022/07/26 00:53:36;;;;;;;0.40;0.20;;;23.10;99.90;;;;;;4993870;28;20398;-68
2022/07/26 00:56:02;;;;;;;0.40;0.20;;;23.00;99.90;;;;;;5021316;28;20427;-68
2022/07/26 00:58:27;;;;;;;0.40;0.20;;;22.90;99.90;;;;;;5013019;28;20388;-68
2022/07/26 01:00:53;;;;;;;0.40;0.30;;;23.10;99.90;;;;;;5027669;28;20391;-68
2022/07/26 01:03:19;;;;;;;0.40;0.20;;;22.90;99.90;;;;;;5032710;28;20394;-68
2022/07/26 01:05:45;;;;;;;0.40;0.20;;;22.90;99.90;;;;;;5028455;28;20395;-68
2022/07/26 01:08:10;;;;;;;0.40;0.30;;;23.10;99.90;;;;;;5024974;28;20944;-68
2022/07/26 01:10:36;;;;;;;0.40;0.20;;;23.00;99.90;;;;;;5032336;28;20403;-70
2022/07/26 01:13:02;;;;;;;0.40;0.30;;;23.00;99.90;;;;;;5032810;28;20753;-70
2022/07/26 01:15:28;;;;;;;0.40;0.30;;;23.00;99.90;;;;;;5032034;28;20502;-70
2022/07/26 01:17:53;;;;;;;0.40;0.20;;;23.00;99.90;;;;;;5018883;28;20396;-70
2022/07/26 01:20:19;;;;;;;0.40;0.30;;;23.00;99.90;;;;;;5017324;28;20389;-70
2022/07/26 01:22:44;;;;;;;0.40;0.20;;;23.00;99.90;;;;;;5012480;28;20389;-68
2022/07/26 01:25:10;;;;;;;0.40;0.30;;;22.90;99.90;;;;;;5017377;28;20762;-68
2022/07/26 01:27:39;;;;;;;0.40;0.20;;;23.00;99.90;;;;;;5015750;28;20488;-68
2022/07/26 01:30:08;;;;;;;0.40;0.20;;;23.00;99.90;;;;;;5016825;28;20391;-68
2022/07/26 01:32:33;;;;;;;0.40;0.20;;;22.90;99.90;;;;;;5032274;28;20383;-68
2022/07/26 01:34:59;;;;;;;0.40;0.20;;;22.70;99.90;;;;;;5030390;28;20906;-68
2022/07/26 01:37:24;;;;;;;0.40;0.20;;;22.80;99.90;;;;;;5031888;28;20398;-69
2022/07/26 01:39:50;;;;;;;0.40;0.40;;;22.80;99.90;;;;;;5030823;28;20394;-68
2022/07/26 01:42:16;;;;;;;0.40;0.30;;;22.70;99.90;;;;;;5032012;28;20569;-68
2022/07/26 01:44:41;;;;;;;0.40;0.30;;;22.60;99.90;;;;;;5026170;28;20408;-68
2022/07/26 01:47:07;;;;;;;0.40;0.30;;;22.70;99.90;;;;;;5027469;28;20395;-68
2022/07/26 01:49:33;;;;;;;0.40;0.30;;;22.70;99.90;;;;;;5018040;28;20397;-68
2022/07/26 01:51:58;;;;;;;0.40;0.28;;;22.60;99.90;;;;;;5026769;28;20800;-70
2022/07/26 01:54:24;;;;;;;0.40;0.20;;;22.60;99.90;;;;;;5031233;28;20505;-69
2022/07/26 01:56:49;;;;;;;0.40;0.20;;;22.70;99.90;;;;;;5031768;28;20429;-68
2022/07/26 01:59:15;;;;;;;0.40;0.30;;;22.70;99.90;;;;;;5023253;28;20447;-68
2022/07/26 02:01:41;;;;;;;0.40;0.30;;;22.60;99.90;;;;;;5015772;28;20406;-68
2022/07/26 02:04:57;;;;;;;0.40;0.30;;;22.60;99.90;;;;;;5031900;28;20429;-68
2022/07/26 02:06:53;;;;;;;0.40;0.20;;;22.60;99.90;;;;;;5031541;28;20411;-68
2022/07/26 02:09:18;;;;;;;0.40;0.30;;;22.50;99.90;;;;;;5032240;28;20722;-68
2022/07/26 02:11:47;;;;;;;0.40;0.20;;;22.50;99.90;;;;;;5018740;28;21079;-68
2022/07/26 02:14:13;;;;;;;0.40;0.30;;;22.50;99.90;;;;;;5032174;28;20399;-68
2022/07/26 02:16:38;;;;;;;0.40;0.20;;;22.50;99.90;;;;;;5022047;28;20416;-69
2022/07/26 02:19:04;;;;;;;0.40;0.20;;;22.40;99.90;;;;;;5012111;28;20481;-68
2022/07/26 02:21:30;;;;;;;0.40;0.20;;;22.40;99.90;;;;;;5015393;28;20420;-69
2022/07/26 02:23:55;;;;;;;0.40;0.30;;;22.40;99.90;;;;;;5031958;28;20380;-68
2022/07/26 02:26:21;;;;;;;0.80;0.80;;;22.40;99.90;;;;;;5031599;28;20490;-68
2022/07/26 02:28:46;;;;;;;0.40;0.30;;;22.40;99.90;;;;;;5012559;28;20404;-68
2022/07/26 02:31:12;;;;;;;0.40;0.20;;;22.40;99.90;;;;;;5016406;28;20426;-68
2022/07/26 02:33:38;;;;;;;0.40;0.20;;;22.40;99.90;;;;;;5011213;28;20951;-68
2022/07/26 02:36:03;;;;;;;0.40;0.20;;;22.30;99.90;;;;;;5012356;28;20962;-68
2022/07/26 02:38:29;;;;;;;0.40;0.20;;;22.30;99.90;;;;;;5021132;28;20614;-69
2022/07/26 02:40:55;;;;;;;0.40;0.20;;;22.30;99.90;;;;;;5029505;28;20403;-68
2022/07/26 02:43:20;;;;;;;0.40;0.20;;;22.20;99.90;;;;;;5029679;28;20415;-68
2022/07/26 02:45:46;;;;;;;0.40;0.40;;;22.10;99.90;;;;;;5018282;28;20439;-68
2022/07/26 02:48:12;;;;;;;0.40;0.30;;;22.10;99.90;;;;;;5011824;28;20380;-68
2022/07/26 02:50:37;;;;;;;0.40;0.30;;;22.00;99.90;;;;;;5014523;28;20759;-69
2022/07/26 02:53:03;;;;;;;0.40;0.20;;;22.00;99.90;;;;;;5025389;28;20375;-68
2022/07/26 02:55:29;;;;;;;0.40;0.20;;;22.10;99.90;;;;;;5030586;28;20915;-69
2022/07/26 02:57:54;;;;;;;0.40;0.30;;;22.00;99.90;;;;;;5021267;28;20395;-68
2022/07/26 03:00:24;;;;;;;0.50;0.40;;;22.10;99.90;;;;;;5011617;28;20397;-68
2022/07/26 03:02:50;;;;;;;0.40;0.30;;;22.10;99.90;;;;;;5010774;28;20455;-68
2022/07/26 03:05:17;;;;;;;0.40;0.20;;;22.20;99.90;;;;;;5001125;28;20401;-68
2022/07/26 03:07:43;;;;;;;0.40;0.20;;;22.10;99.90;;;;;;5019074;28;20393;-69
2022/07/26 03:10:09;;;;;;;0.40;0.20;;;22.20;99.90;;;;;;5012605;28;20400;-68
2022/07/26 03:12:34;;;;;;;0.40;0.20;;;22.20;99.90;;;;;;5011355;28;20450;-69
2022/07/26 03:15:00;;;;;;;0.70;0.60;;;22.20;99.90;;;;;;5011261;28;20423;-68
2022/07/26 03:17:26;;;;;;;0.40;0.25;;;22.10;99.90;;;;;;5011640;28;20888;-68
2022/07/26 03:19:51;;;;;;;0.40;0.20;;;22.10;99.90;;;;;;5024399;28;20398;-68
2022/07/26 03:22:17;;;;;;;0.40;0.30;;;22.10;99.90;;;;;;5014744;28;20385;-68
2022/07/26 03:24:43;;;;;;;0.40;0.20;;;22.00;99.90;;;;;;5019788;28;20391;-68
2022/07/26 03:27:08;;;;;;;0.40;0.30;;;22.10;99.90;;;;;;5016046;28;20480;-68
2022/07/26 03:29:34;;;;;;;0.40;0.20;;;22.10;99.90;;;;;;5021644;28;20395;-69
2022/07/26 03:32:00;;;;;;;0.40;0.30;;;22.10;99.90;;;;;;5014860;28;20393;-68
2022/07/26 03:34:26;;;;;;;0.40;0.20;;;22.10;99.90;;;;;;4993938;28;20729;-68
2022/07/26 03:36:51;;;;;;;0.40;0.30;;;21.90;99.90;;;;;;5012126;28;21012;-68
2022/07/26 03:39:17;;;;;;;0.40;0.20;;;21.90;99.90;;;;;;5020630;28;20452;-68
2022/07/26 03:41:43;;;;;;;0.40;0.20;;;21.90;99.90;;;;;;5029416;28;20414;-68
2022/07/26 03:44:08;;;;;;;0.40;0.20;;;21.80;99.90;;;;;;5013745;28;20765;-68
2022/07/26 03:46:34;;;;;;;0.40;0.30;;;21.80;99.90;;;;;;5010447;28;20455;-69
2022/07/26 03:48:59;;;;;;;0.40;0.20;;;21.80;99.90;;;;;;5017691;28;20387;-68
2022/07/26 03:51:25;;;;;;;0.40;0.20;;;21.70;99.90;;;;;;5024673;28;20429;-68
2022/07/26 03:53:51;;;;;;;0.40;0.20;;;21.90;99.90;;;;;;5027654;28;20389;-69
2022/07/26 03:56:32;;;;;;;0.40;0.20;;;21.90;99.90;;;;;;5016024;28;20415;-68
2022/07/26 03:59:00;;;;;;;0.40;0.30;;;22.00;99.90;;;;;;5025309;28;20395;-68
2022/07/26 04:01:26;;;;;;;0.40;0.30;;;21.80;99.90;;;;;;5015963;28;20385;-68
2022/07/26 04:03:52;;;;;;;0.40;0.20;;;21.70;99.90;;;;;;5010161;28;20424;-68
2022/07/26 04:06:18;;;;;;;0.40;0.27;;;21.70;99.90;;;;;;4997679;28;20713;-68
2022/07/26 04:08:44;;;;;;;0.40;0.30;;;21.70;99.90;;;;;;5025227;28;20503;-68
2022/07/26 04:11:09;;;;;;;0.40;0.30;;;21.60;99.90;;;;;;5022822;28;20397;-68
2022/07/26 04:13:35;;;;;;;0.40;0.20;;;21.40;99.90;;;;;;5017598;28;20475;-69
2022/07/26 04:16:02;;;;;;;0.40;0.20;;;21.40;99.90;;;;;;5025753;28;20504;-68
2022/07/26 04:18:27;;;;;;;0.40;0.20;;;21.60;99.90;;;;;;5012902;28;20381;-68
2022/07/26 04:20:53;;;;;;;0.40;0.30;;;21.60;99.90;;;;;;5026768;28;20447;-68
2022/07/26 04:23:19;;;;;;;0.40;0.20;;;21.50;99.90;;;;;;5024086;28;20473;-68
2022/07/26 04:25:44;;;;;;;0.40;0.20;;;21.60;99.90;;;;;;5025996;28;20390;-69
2022/07/26 04:28:11;;;;;;;0.40;0.30;;;21.80;99.90;;;;;;5016901;28;20407;-69
2022/07/26 04:30:37;;;;;;;0.40;0.20;;;21.70;99.90;;;;;;5031944;28;20399;-69
2022/07/26 04:33:04;;;;;;;0.40;0.40;;;21.80;99.90;;;;;;5019771;28;20397;-68
2022/07/26 04:35:30;;;;;;;0.40;0.20;;;21.90;99.90;;;;;;5016608;28;20507;-69
2022/07/26 04:37:55;;;;;;;0.80;0.80;;;21.70;99.90;;;;;;5013646;28;20395;-68
2022/07/26 04:40:22;;;;;;;0.40;0.30;;;21.40;99.90;;;;;;5030752;28;20391;-69
2022/07/26 04:42:49;;;;;;;0.40;0.30;;;21.50;99.90;;;;;;5026583;28;20447;-69
2022/07/26 04:45:15;;;;;;;0.40;0.20;;;21.50;99.90;;;;;;5015511;28;20752;-69
2022/07/26 04:47:45;;;;;;;1.00;1.00;;;21.50;99.90;;;;;;5013814;28;20384;-69
2022/07/26 04:50:11;;;;;;;0.40;0.20;;;21.50;99.90;;;;;;5023825;28;20430;-68
2022/07/26 04:52:38;;;;;;;0.40;0.20;;;21.50;99.90;;;;;;5019905;28;20406;-69
2022/07/26 04:55:06;;;;;;;0.40;0.20;;;21.70;99.90;;;;;;5021776;28;20417;-69
2022/07/26 04:57:31;;;;;;;0.40;0.20;;;21.70;99.90;;;;;;5022029;28;20407;-69
2022/07/26 04:59:57;;;;;;;0.40;0.20;;;21.70;99.90;;;;;;5024213;28;20593;-69
2022/07/26 05:02:23;;;;;;;0.40;0.20;;;21.60;99.90;;;;;;5025220;28;20403;-69
2022/07/26 05:04:48;;;;;;;0.40;0.20;;;21.80;99.90;;;;;;5023390;28;20867;-68
2022/07/26 05:07:14;;;;;;;0.40;0.40;;;21.70;99.90;;;;;;5020990;28;20393;-69
2022/07/26 05:09:40;;;;;;;0.40;0.20;;;21.60;99.90;;;;;;5021283;28;20381;-68
2022/07/26 05:12:06;;;;;;;0.40;0.20;;;21.60;99.90;;;;;;5025635;28;20403;-69
2022/07/26 05:14:31;;;;;;;0.40;0.22;;;21.30;99.90;;;;;;5025388;28;20478;-68
2022/07/26 05:16:57;;;;;;;0.50;0.50;;;21.30;99.90;;;;;;5019024;28;20494;-69
2022/07/26 05:19:23;;;;;;;0.40;0.20;;;21.20;99.90;;;;;;5013313;28;20515;-68
2022/07/26 05:21:50;;;;;;;0.40;0.20;;;21.30;99.90;;;;;;5016588;28;20390;-68
2022/07/26 05:24:16;;;;;;;0.40;0.30;;;21.30;99.90;;;;;;5023477;28;20443;-67
2022/07/26 05:26:42;;;;;;;0.40;0.30;;;21.30;99.90;;;;;;5020739;28;20401;-69
2022/07/26 05:29:07;;;;;;;0.45;0.30;;;21.20;99.90;;;;;;5028112;28;20392;-69
2022/07/26 05:31:33;;;;;;;0.40;0.20;;;21.00;99.90;;;;;;5032524;28;20391;-69
2022/07/26 05:33:59;;;;;;;0.40;0.20;;;21.10;99.90;;;;;;5031095;28;20855;-67
2022/07/26 05:36:25;;;;;;;0.90;0.90;;;21.20;99.90;;;;;;5023621;28;20411;-69
2022/07/26 05:38:50;;;;;;;0.40;0.30;;;21.10;99.90;;;;;;5026639;28;20798;-68
2022/07/26 05:41:16;;;;;;;0.40;0.20;;;21.10;99.90;;;;;;5022633;28;20497;-69
2022/07/26 05:43:42;;;;;;;0.40;0.20;;;20.90;99.90;;;;;;5027567;28;20442;-69
2022/07/26 05:46:08;;;;;;;0.40;0.30;;;21.10;99.90;;;;;;5032785;28;20472;-67
2022/07/26 05:48:34;;;;;;;0.40;0.30;;;21.30;99.90;;;;;;5028360;28;20393;-69
2022/07/26 05:50:59;;;;;;;0.40;0.30;;;21.30;99.90;;;;;;5012211;28;20439;-67
2022/07/26 05:53:25;;;;;;;0.40;0.20;;;21.20;99.90;;;;;;5022521;28;20866;-68
2022/07/26 05:55:51;;;;;;;0.40;0.30;;;21.30;99.90;;;;;;5018916;28;20503;-68
2022/07/26 05:58:17;;;;;;;0.40;0.30;;;21.30;99.90;;;;;;5015933;28;20878;-68
2022/07/26 06:00:43;;;;;;;0.40;0.20;;;21.10;99.90;;;;;;5023590;28;20400;-70
2022/07/26 06:03:24;;;;;;;0.40;0.30;;;21.20;99.90;;;;;;5014415;28;20809;-69
2022/07/26 06:05:53;;;;;;;0.70;0.60;;;21.20;99.90;;;;;;5023315;28;20414;-70
2022/07/26 06:08:19;;;;;;;0.40;0.30;;;21.10;99.90;;;;;;5032711;28;20395;-68
2022/07/26 06:10:46;;;;;;;0.40;0.30;;;21.10;99.90;;;;;;5027109;28;20789;-70
2022/07/26 06:13:12;;;;;;;0.40;0.20;;;21.30;99.90;;;;;;5022245;28;20402;-71
2022/07/26 06:15:38;;;;;;;0.40;0.20;;;21.30;99.90;;;;;;5029290;28;20419;-72
2022/07/26 06:18:05;;;;;;;0.40;0.20;;;21.20;99.90;;;;;;5029385;28;20437;-70
2022/07/26 06:20:31;;;;;;;0.40;0.20;;;21.30;99.90;;;;;;5014336;28;20408;-68
2022/07/26 06:22:57;;;;;;;0.40;0.40;;;21.20;99.90;;;;;;5013190;28;20995;-68
2022/07/26 06:25:26;;;;;;;0.40;0.20;;;21.30;99.90;;;;;;4995204;28;20397;-69
2022/07/26 06:27:52;;;;;;;0.43;0.32;;;21.10;99.90;;;;;;5011955;28;20467;-70
2022/07/26 06:30:18;;;;;;;2.00;0.80;;;21.20;99.90;;;;;;5012423;28;20393;-69
2022/07/26 06:32:44;;;;;;;0.40;0.20;;;21.30;99.90;;;;;;5011745;28;20392;-71
2022/07/26 06:35:14;;;;;;;0.40;0.20;;;21.40;99.90;;;;;;5012512;28;20456;-69
2022/07/26 06:37:41;;;;;;;0.40;0.28;;;21.60;99.90;;;;;;5012579;28;20751;-69
2022/07/26 06:40:08;;;;;;;0.50;0.50;;;21.60;99.90;;;;;;5011895;28;20385;-71
2022/07/26 06:42:34;;;;;;;0.40;0.30;;;21.60;99.90;;;;;;5003664;28;20848;-71
2022/07/26 06:45:00;;;;;;;0.40;0.20;;;21.40;99.90;;;;;;4991741;28;20402;-70
2022/07/26 06:47:26;;;;;;;0.40;0.20;;;21.30;99.90;;;;;;4992388;28;20385;-70
2022/07/26 06:49:52;;;;;;;0.40;0.20;;;21.30;99.90;;;;;;4991814;28;20453;-69
2022/07/26 06:52:19;;;;;;;0.40;0.20;;;21.40;99.90;;;;;;5001528;28;20400;-70
2022/07/26 06:54:45;;;;;;;0.40;0.20;;;21.40;99.90;;;;;;5000178;28;20386;-70
2022/07/26 06:57:10;;;;;;;0.40;0.20;;;21.50;99.90;;;;;;4993587;28;20382;-67
2022/07/26 06:59:36;;;;;;;0.40;0.30;;;21.50;99.90;;;;;;4994183;28;20451;-69
2022/07/26 07:02:03;;;;;;;0.40;0.30;;;21.50;99.90;;;;;;5001847;28;20488;-68
2022/07/26 07:04:30;;;;;;;0.40;0.20;;;21.60;99.90;;;;;;5000592;28;20385;-69
2022/07/26 07:06:56;;;;;;;0.40;0.30;;;21.60;99.90;;;;;;5000271;28;20913;-69
2022/07/26 07:09:23;;;;;;;0.40;0.30;;;21.50;99.90;;;;;;5000925;28;20770;-69
2022/07/26 07:11:49;;;;;;;0.40;0.30;;;21.50;99.90;;;;;;4999234;28;20496;-69
2022/07/26 07:14:15;;;;;;;0.40;0.20;;;21.40;99.90;;;;;;5003332;28;20874;-69
2022/07/26 07:16:40;;;;;;;0.40;0.30;;;21.40;99.90;;;;;;5000844;28;20411;-68
2022/07/26 07:19:06;;;;;;;0.40;0.20;;;21.70;99.90;;;;;;5001788;28;20385;-69
2022/07/26 07:21:32;;;;;;;0.40;0.20;;;21.90;99.90;;;;;;5000389;28;20392;-69
2022/07/26 07:23:58;;;;;;;0.40;0.30;;;21.80;99.90;;;;;;5000489;28;20394;-69
2022/07/26 07:26:24;;;;;;;0.40;0.30;;;21.70;99.90;;;;;;5000391;28;20386;-69
2022/07/26 07:28:50;;;;;;;0.40;0.20;;;21.70;99.90;;;;;;4999321;28;20386;-69
2022/07/26 07:31:15;;;;;;;0.40;0.30;;;21.60;99.90;;;;;;5001542;28;20376;-69
2022/07/26 07:33:41;;;;;;;0.40;0.30;;;21.60;99.90;;;;;;4999852;28;20431;-69
2022/07/26 07:36:07;;;;;;;0.60;0.60;;;21.50;99.90;;;;;;4998996;28;20505;-69
2022/07/26 07:38:33;;;;;;;0.40;0.20;;;21.60;99.90;;;;;;5000237;28;20475;-70
2022/07/26 07:40:58;;;;;;;0.40;0.40;;;21.50;99.90;;;;;;5001310;28;20432;-70
2022/07/26 07:43:24;;;;;;;0.40;0.20;;;21.70;99.90;;;;;;5015313;28;20420;-70
2022/07/26 07:45:50;;;;;;;0.40;0.20;;;21.60;99.90;;;;;;5020163;28;20391;-70
2022/07/26 07:48:16;;;;;;;0.40;0.30;;;21.70;99.90;;;;;;5021740;28;20464;-70
2022/07/26 07:50:41;;;;;;;0.40;0.30;;;21.80;99.90;;;;;;5021466;28;20753;-68
2022/07/26 07:53:07;;;;;;;0.40;0.20;;;21.50;99.90;;;;;;5018832;28;20385;-69
2022/07/26 07:55:33;;;;;;;0.40;0.20;;;21.60;99.90;;;;;;5020381;28;20759;-69
2022/07/26 07:57:59;;;;;;;0.40;0.30;;;21.50;99.90;;;;;;5017464;28;20393;-69
2022/07/26 08:00:25;;;;;;;0.40;0.20;;;21.60;99.90;;;;;;5020391;28;20395;-69
2022/07/26 08:02:51;;;;;;;0.40;0.20;;;21.60;99.90;;;;;;5018804;28;20389;-69
2022/07/26 08:05:17;;;;;;;0.40;0.30;;;21.60;99.90;;;;;;5018980;28;20790;-68
2022/07/26 08:07:42;;;;;;;0.40;0.30;;;21.90;99.90;;;;;;5020767;28;20391;-69
2022/07/26 08:10:09;;;;;;;0.40;0.27;;;22.10;99.70;;;;;;5018694;28;20773;-69
2022/07/26 08:12:35;;;;;;;0.40;0.20;;;22.10;99.50;;;;;;5019109;28;20391;-68
2022/07/26 08:15:04;;;;;;;0.40;0.30;;;21.80;99.60;;;;;;5002126;28;20483;-68
2022/07/26 08:17:29;;;;;;;0.40;0.20;;;22.00;98.50;;;;;;5019198;28;21086;-68
2022/07/26 08:19:55;;;;;;;0.40;0.30;;;22.10;95.90;;;;;;5018340;28;20387;-68
2022/07/26 08:22:21;;;;;;;0.40;0.30;;;22.10;96.10;;;;;;5020644;28;20387;-68
2022/07/26 08:24:47;;;;;;;0.40;0.30;;;22.20;96.60;;;;;;5018392;28;20376;-68
2022/07/26 08:27:13;;;;;;;0.40;0.20;;;22.30;97.90;;;;;;5019106;28;20387;-68
2022/07/26 08:29:39;;;;;;;0.40;0.20;;;22.40;97.90;;;;;;5020378;28;20529;-68
2022/07/26 08:32:05;;;;;;;0.40;0.20;;;22.40;96.70;;;;;;5016967;28;20452;-68
2022/07/26 08:34:31;;;;;;;0.40;0.20;;;22.50;97.30;;;;;;5019190;28;20404;-68
2022/07/26 08:36:57;;;;;;;0.40;0.30;;;22.70;98.50;;;;;;5017880;28;20414;-68
2022/07/26 08:39:23;;;;;;;0.40;0.20;;;22.90;96.90;;;;;;5017634;28;20388;-68
2022/07/26 08:41:49;;;;;;;0.40;0.30;;;23.00;96.60;;;;;;5013952;28;21806;-69
2022/07/26 08:44:14;;;;;;;0.40;0.30;;;23.30;96.80;;;;;;5000373;28;20400;-68
2022/07/26 08:46:41;;;;;;;0.60;0.60;;;23.40;96.90;;;;;;5000275;28;20893;-68
2022/07/26 08:49:09;;;;;;;0.40;0.20;;;23.50;96.30;;;;;;5001990;28;20400;-70
2022/07/26 08:51:39;;;;;;;0.40;0.20;;;23.30;92.20;;;;;;4999122;28;20398;-69
2022/07/26 08:54:05;;;;;;;0.40;0.30;;;23.20;92.40;;;;;;4998297;28;20461;-70
2022/07/26 08:56:32;;;;;;;0.40;0.30;;;23.10;92.10;;;;;;5000453;28;20463;-69
2022/07/26 08:58:58;;;;;;;7.70;0.60;;;23.00;93.30;;;;;;4997937;28;20563;-70
2022/07/26 09:01:23;;;;;;;0.40;0.20;;;23.10;93.60;;;;;;4998364;28;20493;-68
2022/07/26 09:03:49;;;;;;;0.40;0.30;;;22.90;93.20;;;;;;5000671;28;20434;-69
2022/07/26 09:06:18;;;;;;;0.40;0.20;;;22.80;93.50;;;;;;4999215;28;21007;-67
2022/07/26 09:08:46;;;;;;;0.40;0.20;;;23.00;93.30;;;;;;5004882;28;20482;-68
2022/07/26 09:11:26;;;;;;;0.40;0.30;;;23.00;92.10;;;;;;5004769;28;20399;-69
2022/07/26 09:14:13;;;;;;;0.40;0.30;;;23.20;92.90;;;;;;5012716;28;20393;-69
2022/07/26 09:16:38;;;;;;;0.40;0.30;;;22.90;92.40;;;;;;4996200;28;20490;-68
2022/07/26 09:19:22;;;;;;;0.40;0.30;;;22.90;93.50;;;;;;5012039;28;21041;-69
2022/07/26 09:21:49;;;;;;;0.40;0.30;;;22.90;94.50;;;;;;4994739;28;20502;-69
2022/07/26 09:24:37;;;;;;;0.40;0.30;;;22.90;93.50;;;;;;5001124;28;20402;-69
2022/07/26 09:27:06;;;;;;;0.40;0.20;;;23.10;95.80;;;;;;4992769;28;20543;-68
2022/07/26 09:29:53;;;;;;;0.40;0.40;;;23.30;95.00;;;;;;4997751;28;20440;-69
2022/07/26 09:32:24;;;;;;;0.40;0.30;;;23.30;93.30;;;;;;5006138;28;20408;-69
2022/07/26 09:34:52;;;;;;;0.40;0.30;;;23.30;93.20;;;;;;5006907;28;20396;-69
2022/07/26 09:37:31;;;;;;;0.40;0.20;;;23.30;92.30;;;;;;4992471;28;20398;-68
2022/07/26 09:40:00;;;;;;;0.40;0.20;;;23.30;92.80;;;;;;4992461;28;20394;-69
2022/07/26 09:42:26;;;;;;;0.40;0.30;;;23.40;93.20;;;;;;4996398;28;20446;-67
2022/07/26 09:44:54;;;;;;;0.40;0.30;;;23.50;93.00;;;;;;5008590;28;20405;-67
2022/07/26 09:47:20;;;;;;;0.40;0.20;;;23.60;92.60;;;;;;5011004;28;20481;-67
2022/07/26 09:49:46;;;;;;;0.40;0.20;;;23.90;92.60;;;;;;5012550;28;20381;-70
2022/07/26 09:52:20;;;;;;;0.40;0.30;;;23.80;90.60;;;;;;5000336;28;20398;-67
2022/07/26 09:54:48;;;;;;;0.40;0.30;;;23.60;92.00;;;;;;4992967;28;20866;-67
2022/07/26 09:57:19;;;;;;;0.40;0.20;;;23.60;90.70;;;;;;4993430;28;20450;-66
2022/07/26 09:59:45;;;;;;;0.60;0.50;;;23.40;90.50;;;;;;4992926;28;20437;-67
2022/07/26 10:02:12;;;;;;;0.40;0.20;;;23.20;90.70;;;;;;4992648;28;20389;-67
2022/07/26 10:04:43;;;;;;;0.40;0.30;;;23.20;90.90;;;;;;4993290;28;20489;-67
2022/07/26 10:07:09;;;;;;;0.40;0.20;;;23.30;90.70;;;;;;4992327;28;20399;-68
2022/07/26 10:09:53;;;;;;;0.50;0.50;;;23.60;88.30;;;;;;5005954;28;20397;-67
2022/07/26 10:12:22;;;;;;;0.50;0.50;;;23.60;87.20;;;;;;5011325;28;20419;-68
2022/07/26 10:14:50;;;;;;;0.40;0.30;;;23.80;85.60;;;;;;5011774;28;20391;-68
2022/07/26 10:17:28;;;;;;;0.40;0.20;;;23.90;87.80;;;;;;5011662;28;20440;-68
2022/07/26 10:20:02;;;;;;;0.40;0.30;;;24.10;88.20;;;;;;5011276;28;20388;-67
2022/07/26 10:22:39;;;;;;;0.40;0.30;;;24.20;84.70;;;;;;4994344;28;20404;-68
2022/07/26 10:25:17;;;;;;;0.40;0.20;;;23.80;83.00;;;;;;5011260;28;20384;-68
2022/07/26 10:27:43;;;;;;;0.40;0.32;;;23.90;84.90;;;;;;5011984;28;20400;-68
2022/07/26 10:30:17;;;;;;;0.40;0.30;;;23.70;86.00;;;;;;5011185;28;20393;-68
2022/07/26 10:32:52;;;;;;;0.50;0.50;;;24.30;86.30;;;;;;4992594;28;20405;-68
2022/07/26 10:35:39;;;;;;;0.40;0.20;;;24.40;85.20;;;;;;4992043;28;20453;-68
2022/07/26 10:38:25;;;;;;;0.40;0.20;;;25.00;82.60;;;;;;4997289;28;20397;-68
2022/07/26 10:40:58;;;;;;;0.40;0.20;;;25.40;80.60;;;;;;5010986;28;20483;-66
2022/07/26 10:43:24;;;;;;;0.40;0.30;;;24.80;76.30;;;;;;5011862;28;20409;-68
2022/07/26 10:46:12;;;;;;;0.40;0.30;;;24.30;79.00;;;;;;5011591;28;20384;-71
2022/07/26 10:48:54;;;;;;;0.40;0.20;;;24.40;79.70;;;;;;4991620;28;20409;-69
2022/07/26 10:51:28;;;;;;;0.40;0.33;;;24.60;80.20;;;;;;4999507;28;20480;-67
2022/07/26 10:54:08;;;;;;;0.40;0.30;;;24.10;78.60;;;;;;5011210;28;20699;-67
2022/07/26 10:56:34;;;;;;;0.40;0.20;;;24.20;79.10;;;;;;5010175;28;20935;-67
2022/07/26 10:59:00;;;;;;;0.40;0.30;;;24.30;78.80;;;;;;4995491;28;20399;-69
2022/07/26 11:01:37;;;;;;;0.40;0.20;;;24.30;78.80;;;;;;4998197;28;20478;-68
2022/07/26 11:04:04;;;;;;;0.40;0.20;;;24.50;77.50;;;;;;4996056;28;20455;-69
2022/07/26 11:06:31;;;;;;;0.40;0.20;;;24.60;76.90;;;;;;5011192;28;20459;-68
2022/07/26 11:08:57;;;;;;;0.40;0.30;;;24.80;76.70;;;;;;4998456;28;20393;-68
2022/07/26 11:11:32;;;;;;;0.40;0.30;;;24.80;75.90;;;;;;5009818;28;20745;-68
2022/07/26 11:14:05;;;;;;;0.40;0.20;;;24.40;76.20;;;;;;5010677;28;20495;-71
2022/07/26 11:16:42;;;;;;;0.40;0.20;;;24.10;76.50;;;;;;5010882;28;20412;-70
2022/07/26 11:19:16;;;;;;;0.40;0.20;;;24.20;77.10;;;;;;5003144;28;20451;-71
2022/07/26 11:21:52;;;;;;;0.40;0.20;;;24.40;76.70;;;;;;5010955;28;20734;-69
2022/07/26 11:24:18;;;;;;;0.40;0.20;;;24.90;76.30;;;;;;5011327;28;20389;-66
2022/07/26 11:26:45;;;;;;;0.40;0.30;;;25.40;73.80;;;;;;5010369;28;20403;-69
2022/07/26 11:29:12;;;;;;;0.40;0.30;;;25.30;71.70;;;;;;5010122;28;21024;-68
2022/07/26 11:31:43;;;;;;;0.40;0.30;;;25.30;71.70;;;;;;5009831;28;20435;-68
2022/07/26 11:34:21;;;;;;;0.40;0.30;;;24.90;71.80;;;;;;5010623;28;20904;-68
2022/07/26 11:36:47;;;;;;;0.40;0.30;;;24.70;73.30;;;;;;5010535;28;20413;-68
2022/07/26 11:39:19;;;;;;;0.40;0.30;;;24.70;74.60;;;;;;5009396;28;20393;-67
2022/07/26 11:41:46;;;;;;;0.40;0.20;;;24.60;73.90;;;;;;4993107;28;20861;-67
2022/07/26 11:44:17;;;;;;;0.40;0.30;;;24.60;74.70;;;;;;5024986;28;20395;-67
2022/07/26 11:46:48;;;;;;;0.40;0.30;;;25.60;72.50;;;;;;5020562;28;20393;-68
2022/07/26 11:49:17;;;;;;;0.40;0.20;;;26.20;69.00;;;;;;5007370;28;20472;-68
2022/07/26 11:51:48;;;;;;;0.40;0.30;;;26.80;66.40;;;;;;5021790;28;20387;-68
2022/07/26 11:54:14;;;;;;;0.40;0.30;;;27.80;65.80;;;;;;5030020;28;20410;-68
2022/07/26 11:56:49;;;;;;;0.40;0.20;;;27.40;65.40;;;;;;5029253;28;20415;-68
2022/07/26 11:59:15;;;;;;;0.40;0.25;;;27.80;60.00;;;;;;5029382;28;20607;-68
2022/07/26 12:01:43;;;;;;;0.40;0.20;;;28.10;58.50;;;;;;5012179;28;20864;-68
2022/07/26 12:04:21;;;;;;;0.40;0.20;;;28.70;63.30;;;;;;5010320;28;20561;-68
2022/07/26 12:06:47;;;;;;;0.40;0.20;;;27.50;58.20;;;;;;5014671;28;20412;-68
2022/07/26 12:09:49;;;;;;;0.40;0.20;;;27.80;60.00;;;;;;5029485;28;20391;-68
2022/07/26 12:12:29;;;;;;;0.40;0.20;;;26.80;64.60;;;;;;5016881;28;20460;-68
2022/07/26 12:15:00;;;;;;;0.40;0.30;;;26.60;64.20;;;;;;5020257;28;20416;-68
2022/07/26 12:17:27;;;;;;;0.40;0.30;;;26.00;66.00;;;;;;5009963;28;20381;-70
2022/07/26 12:19:52;;;;;;;0.40;0.30;;;25.80;63.40;;;;;;5007956;28;20407;-68
2022/07/26 12:22:22;;;;;;;0.40;0.30;;;25.40;65.30;;;;;;5010253;28;20400;-68
2022/07/26 12:24:51;;;;;;;0.40;0.30;;;26.80;65.30;;;;;;5029578;28;20474;-69
2022/07/26 12:27:29;;;;;;;0.40;0.30;;;28.00;58.70;;;;;;5012180;28;20896;-70
2022/07/26 12:30:03;;;;;;;0.40;0.20;;;27.00;58.40;;;;;;5009236;28;20395;-68
2022/07/26 12:32:34;;;;;;;0.40;0.30;;;27.30;60.70;;;;;;5021122;28;20399;-69
2022/07/26 12:35:02;;;;;;;0.40;0.30;;;27.00;59.70;;;;;;5028373;28;20521;-68
2022/07/26 12:37:29;;;;;;;0.40;0.30;;;27.10;61.10;;;;;;5027745;28;20798;-68
2022/07/26 12:39:59;;;;;;;0.40;0.30;;;27.30;58.70;;;;;;5027384;28;20399;-69
2022/07/26 12:42:30;;;;;;;0.40;0.20;;;27.40;57.90;;;;;;5032662;28;20496;-68
2022/07/26 12:44:57;;;;;;;0.40;0.30;;;27.60;59.50;;;;;;5013731;28;20466;-68
2022/07/26 12:47:23;;;;;;;0.40;0.30;;;28.30;60.30;;;;;;5012779;28;20384;-68
2022/07/26 12:49:50;;;;;;;0.40;0.20;;;29.00;56.70;;;;;;5021105;28;20375;-67
2022/07/26 12:52:17;;;;;;;0.40;0.20;;;27.80;56.30;;;;;;5021929;28;20728;-68
2022/07/26 12:54:45;;;;;;;0.40;0.20;;;26.10;59.20;;;;;;5033006;28;20402;-68
2022/07/26 12:57:10;;;;;;;0.40;0.30;;;26.10;60.60;;;;;;5018078;28;20896;-68